createdAt,value
2022-10-12T00:02:35.295Z,18.90
2022-10-12T00:05:22.759Z,18.80
2022-10-12T00:08:10.619Z,18.80
2022-10-12T00:10:59.249Z,18.70
2022-10-12T00:13:47.800Z,18.50
2022-10-12T00:16:35.395Z,18.50
2022-10-12T00:19:22.819Z,18.50
2022-10-12T00:22:10.265Z,18.40
2022-10-12T00:24:57.750Z,18.50
2022-10-12T00:27:46.437Z,18.50
2022-10-12T00:30:35.254Z,18.50
2022-10-12T00:33:22.802Z,18.80
2022-10-12T00:36:24.325Z,18.90
2022-10-12T00:39:11.905Z,18.90
2022-10-12T00:41:59.388Z,18.90
2022-10-12T00:44:51.086Z,19.00
2022-10-12T00:47:44.572Z,19.20
2022-10-12T00:50:35.491Z,19.00
2022-10-12T00:53:30.664Z,18.90
2022-10-12T00:56:24.125Z,18.80
2022-10-12T00:59:18.785Z,18.70
2022-10-12T01:02:06.986Z,19.00
2022-10-12T01:04:55.159Z,19.30
2022-10-12T01:07:42.555Z,19.50
2022-10-12T01:10:29.985Z,19.50
2022-10-12T01:13:18.560Z,19.50
2022-10-12T01:16:22.495Z,19.80
2022-10-12T01:19:31.294Z,19.90
2022-10-12T01:22:22.494Z,19.80
2022-10-12T01:25:36.028Z,19.90
2022-10-12T01:28:44.894Z,19.70
2022-10-12T01:31:39.419Z,19.50
2022-10-12T01:35:10.236Z,19.30
2022-10-12T01:38:19.312Z,19.10
2022-10-12T01:41:37.119Z,18.90
2022-10-12T01:44:26.847Z,18.80
2022-10-12T01:47:14.395Z,18.70
2022-10-12T01:50:06.914Z,18.70
2022-10-12T01:53:27.726Z,18.60
2022-10-12T01:56:28.305Z,18.50
2022-10-12T02:00:00.055Z,18.40
2022-10-12T02:03:25.654Z,18.40
2022-10-12T02:06:19.754Z,18.30
2022-10-12T02:09:30.574Z,18.20
2022-10-12T02:12:23.965Z,18.20
2022-10-12T02:15:14.120Z,18.20
2022-10-12T02:18:05.550Z,18.10
2022-10-12T02:20:56.825Z,18.20
2022-10-12T02:23:48.500Z,18.10
2022-10-12T02:26:43.169Z,18.00
2022-10-12T02:29:38.725Z,18.00
2022-10-12T02:32:49.335Z,18.00
2022-10-12T02:35:54.130Z,18.00
2022-10-12T02:38:57.559Z,17.90
2022-10-12T02:41:50.899Z,17.90
2022-10-12T02:44:42.856Z,17.80
2022-10-12T02:47:34.305Z,17.90
2022-10-12T02:50:25.119Z,17.90
2022-10-12T02:53:14.650Z,17.80
2022-10-12T02:56:08.187Z,17.80
2022-10-12T02:58:55.831Z,17.80
2022-10-12T03:01:44.199Z,17.70
2022-10-12T03:04:31.724Z,17.80
2022-10-12T03:07:19.312Z,17.80
2022-10-12T03:10:07.410Z,17.80
2022-10-12T03:12:55.086Z,17.80
2022-10-12T03:15:42.579Z,17.80
2022-10-12T03:18:30.395Z,17.90
2022-10-12T03:21:18.130Z,18.20
2022-10-12T03:24:05.858Z,18.50
2022-10-12T03:26:53.296Z,18.80
2022-10-12T03:29:40.749Z,18.90
2022-10-12T03:32:28.245Z,19.30
2022-10-12T03:35:16.685Z,19.60
2022-10-12T03:38:04.785Z,19.70
2022-10-12T03:40:52.225Z,19.80
2022-10-12T03:43:40.391Z,19.90
2022-10-12T03:46:27.902Z,19.80
2022-10-12T03:49:15.410Z,19.90
2022-10-12T03:52:02.896Z,19.90
2022-10-12T03:54:50.325Z,19.90
2022-10-12T03:57:38.633Z,19.90
2022-10-12T04:00:28.196Z,20.00
2022-10-12T04:03:15.684Z,19.90
2022-10-12T04:06:03.235Z,20.10
2022-10-12T04:08:51.193Z,20.20
2022-10-12T04:11:38.635Z,20.20
2022-10-12T04:14:26.121Z,20.10
2022-10-12T04:17:17.112Z,20.00
2022-10-12T04:20:05.932Z,19.90
2022-10-12T04:22:53.448Z,19.80
2022-10-12T04:25:40.860Z,19.70
2022-10-12T04:28:28.374Z,19.60
2022-10-12T04:31:15.840Z,19.20
2022-10-12T04:34:03.290Z,19.10
2022-10-12T04:36:50.835Z,19.20
2022-10-12T04:39:38.303Z,19.20
2022-10-12T04:42:25.760Z,19.20
2022-10-12T04:45:13.783Z,19.20
2022-10-12T04:48:01.221Z,19.20
2022-10-12T04:50:48.822Z,19.30
2022-10-12T04:53:36.269Z,19.50
2022-10-12T04:56:23.682Z,19.50
2022-10-12T04:59:11.290Z,19.60
2022-10-12T05:01:58.772Z,19.80
2022-10-12T05:04:46.160Z,19.90
2022-10-12T05:07:33.741Z,20.10
2022-10-12T05:10:21.201Z,19.90
2022-10-12T05:13:08.728Z,20.00
2022-10-12T05:15:56.292Z,20.00
2022-10-12T05:18:43.820Z,20.10
2022-10-12T05:21:31.219Z,20.10
2022-10-12T05:24:18.721Z,20.10
2022-10-12T05:27:06.194Z,20.20
2022-10-12T05:29:53.765Z,20.20
2022-10-12T05:32:43.833Z,20.10
2022-10-12T05:35:31.256Z,20.00
2022-10-12T05:38:19.249Z,20.00
2022-10-12T05:41:06.994Z,20.10
2022-10-12T05:43:54.395Z,19.90
2022-10-12T05:46:41.877Z,19.90
2022-10-12T05:49:30.924Z,20.10
2022-10-12T05:52:18.429Z,19.90
2022-10-12T05:55:06.851Z,20.10
2022-10-12T05:57:54.410Z,19.90
2022-10-12T06:00:41.878Z,20.00
2022-10-12T06:03:34.056Z,20.20
2022-10-12T06:06:23.212Z,20.10
2022-10-12T06:09:12.326Z,20.10
2022-10-12T06:11:59.810Z,19.90
2022-10-12T06:14:47.229Z,19.80
2022-10-12T06:17:34.665Z,19.90
2022-10-12T06:20:22.090Z,20.10
2022-10-12T06:23:09.641Z,20.10
2022-10-12T06:25:57.306Z,19.90
2022-10-12T06:28:44.946Z,20.00
2022-10-12T06:31:34.020Z,19.80
2022-10-12T06:34:21.669Z,20.10
2022-10-12T06:37:20.428Z,19.90
2022-10-12T06:40:20.242Z,20.20
2022-10-12T06:43:08.087Z,19.90
2022-10-12T06:46:01.672Z,20.10
2022-10-12T06:48:49.144Z,20.20
2022-10-12T06:51:36.559Z,20.00
2022-10-12T06:54:24.121Z,20.10
2022-10-12T06:57:11.540Z,20.20
2022-10-12T06:59:58.985Z,20.10
2022-10-12T07:02:50.564Z,20.00
2022-10-12T07:05:38.035Z,20.30
2022-10-12T07:08:25.573Z,20.50
2022-10-12T07:11:13.906Z,20.50
2022-10-12T07:14:01.475Z,20.30
2022-10-12T07:16:54.262Z,20.20
2022-10-12T07:19:42.647Z,20.40
2022-10-12T07:22:30.130Z,20.60
2022-10-12T07:25:17.691Z,20.60
2022-10-12T07:28:06.503Z,20.50
2022-10-12T07:30:54.082Z,20.70
2022-10-12T07:33:41.525Z,20.70
2022-10-12T07:36:47.241Z,20.90
2022-10-12T07:39:36.450Z,20.80
2022-10-12T07:42:25.537Z,20.70
2022-10-12T07:45:12.985Z,20.80
2022-10-12T07:48:00.535Z,20.90
2022-10-12T07:50:48.721Z,21.10
2022-10-12T07:53:38.774Z,20.90
2022-10-12T07:56:27.346Z,20.80
2022-10-12T07:59:15.216Z,21.10
2022-10-12T08:02:02.844Z,21.30
2022-10-12T08:04:50.396Z,21.50
2022-10-12T08:07:38.118Z,21.20
2022-10-12T08:10:26.203Z,21.20
2022-10-12T08:13:13.695Z,21.50
2022-10-12T08:16:03.661Z,21.90
2022-10-12T08:18:51.354Z,22.00
2022-10-12T08:21:39.123Z,22.00
2022-10-12T08:24:26.598Z,22.40
2022-10-12T08:27:14.330Z,22.60
2022-10-12T08:30:01.990Z,22.50
2022-10-12T08:32:49.425Z,23.00
2022-10-12T08:35:43.559Z,23.30
2022-10-12T08:38:31.670Z,23.30
2022-10-12T08:41:45.279Z,23.30
2022-10-12T08:44:58.865Z,23.50
2022-10-12T08:48:17.439Z,23.60
2022-10-12T08:51:16.874Z,23.20
2022-10-12T08:54:08.658Z,23.10
2022-10-12T08:56:58.004Z,23.40
2022-10-12T08:59:47.055Z,23.00
2022-10-12T09:03:13.370Z,23.20
2022-10-12T09:06:19.600Z,23.00
2022-10-12T09:09:43.147Z,23.40
2022-10-12T09:12:55.755Z,23.50
2022-10-12T09:16:04.485Z,23.80
2022-10-12T09:19:10.040Z,24.00
2022-10-12T09:21:58.238Z,23.90
2022-10-12T09:24:50.052Z,23.90
2022-10-12T09:27:40.674Z,24.20
2022-10-12T09:30:36.855Z,24.20
2022-10-12T09:33:46.064Z,24.40
2022-10-12T09:36:39.165Z,24.20
2022-10-12T09:39:40.879Z,24.50
2022-10-12T09:42:28.514Z,24.50
2022-10-12T09:45:21.849Z,24.80
2022-10-12T09:48:20.379Z,25.20
2022-10-12T09:51:07.925Z,25.50
2022-10-12T09:53:58.968Z,25.70
2022-10-12T09:56:55.308Z,26.00
2022-10-12T09:59:45.586Z,25.50
2022-10-12T10:02:46.715Z,25.20
2022-10-12T10:05:38.789Z,25.30
2022-10-12T10:08:26.240Z,25.20
2022-10-12T10:11:23.028Z,25.10
2022-10-12T10:14:15.794Z,25.00
2022-10-12T10:17:03.295Z,24.90
2022-10-12T10:19:56.634Z,24.50
2022-10-12T10:22:50.281Z,24.80
2022-10-12T10:25:38.016Z,24.70
2022-10-12T10:28:30.939Z,24.70
2022-10-12T10:31:27.893Z,24.60
2022-10-12T10:34:21.069Z,24.30
2022-10-12T10:37:23.086Z,24.80
2022-10-12T10:40:29.890Z,24.90
2022-10-12T10:43:30.289Z,25.00
2022-10-12T10:46:26.426Z,25.00
2022-10-12T10:49:30.057Z,24.90
2022-10-12T10:52:31.464Z,25.40
2022-10-12T10:55:40.768Z,25.10
2022-10-12T10:58:56.645Z,25.10
2022-10-12T11:01:58.071Z,24.90
2022-10-12T11:04:54.287Z,25.40
2022-10-12T11:07:49.225Z,25.40
2022-10-12T11:11:23.323Z,25.40
2022-10-12T11:14:53.783Z,25.80
2022-10-12T11:17:54.771Z,25.50
2022-10-12T11:21:11.614Z,25.50
2022-10-12T11:24:42.205Z,25.20
2022-10-12T11:27:41.962Z,25.30
2022-10-12T11:30:47.221Z,25.60
2022-10-12T11:33:41.919Z,25.40
2022-10-12T11:36:34.861Z,25.50
2022-10-12T11:39:36.776Z,25.30
2022-10-12T11:42:37.100Z,25.40
2022-10-12T11:45:36.602Z,25.30
2022-10-12T11:48:53.228Z,25.40
2022-10-12T11:51:47.240Z,25.40
2022-10-12T11:55:28.300Z,26.20
2022-10-12T11:58:42.252Z,26.30
2022-10-12T12:01:57.254Z,26.20
2022-10-12T12:04:48.467Z,26.40
2022-10-12T12:07:51.012Z,26.40
2022-10-12T12:10:40.550Z,26.50
2022-10-12T12:13:28.595Z,26.10
2022-10-12T12:16:19.047Z,26.70
2022-10-12T12:19:37.856Z,26.10
2022-10-12T12:22:28.932Z,26.50
2022-10-12T12:25:39.054Z,26.70
2022-10-12T12:28:26.681Z,26.50
2022-10-12T12:31:26.291Z,26.30
2022-10-12T12:34:17.381Z,26.40
2022-10-12T12:37:13.101Z,26.30
2022-10-12T12:40:00.806Z,26.60
2022-10-12T12:42:48.928Z,26.80
2022-10-12T12:45:41.579Z,26.50
2022-10-12T12:48:45.130Z,26.60
2022-10-12T12:51:40.234Z,26.50
2022-10-12T12:54:28.430Z,26.80
2022-10-12T12:57:46.880Z,26.60
2022-10-12T13:00:40.190Z,26.30
2022-10-12T13:04:23.514Z,26.70
2022-10-12T13:07:26.280Z,26.70
2022-10-12T13:10:31.766Z,26.40
2022-10-12T13:13:40.305Z,27.00
2022-10-12T13:17:30.678Z,26.90
2022-10-12T13:19:55.751Z,27.00
2022-10-12T13:22:47.190Z,26.90
2022-10-12T13:26:00.995Z,27.00
2022-10-12T13:28:50.631Z,27.00
2022-10-12T13:31:46.614Z,26.70
2022-10-12T13:34:43.845Z,26.60
2022-10-12T13:37:34.313Z,26.80
2022-10-12T13:40:41.792Z,26.70
2022-10-12T13:44:00.555Z,26.00
2022-10-12T13:46:56.993Z,25.90
2022-10-12T13:49:44.505Z,25.90
2022-10-12T13:52:34.518Z,26.10
2022-10-12T13:55:26.862Z,26.30
2022-10-12T13:58:30.260Z,26.30
2022-10-12T14:01:17.775Z,25.90
2022-10-12T14:04:06.395Z,26.20
2022-10-12T14:07:00.260Z,25.90
2022-10-12T14:09:55.945Z,26.20
2022-10-12T14:12:48.746Z,26.10
2022-10-12T14:15:41.039Z,26.30
2022-10-12T14:18:42.690Z,26.20
2022-10-12T14:21:34.612Z,26.40
2022-10-12T14:24:24.375Z,26.50
2022-10-12T14:27:28.761Z,26.60
2022-10-12T14:30:32.611Z,26.80
2022-10-12T14:33:23.971Z,26.40
2022-10-12T14:36:30.882Z,26.40
2022-10-12T14:39:19.955Z,26.50
2022-10-12T14:42:32.155Z,26.40
2022-10-12T14:45:26.136Z,26.40
2022-10-12T14:48:23.528Z,26.30
2022-10-12T14:51:14.046Z,26.30
2022-10-12T14:54:05.440Z,26.10
2022-10-12T14:56:52.874Z,26.30
2022-10-12T14:59:40.555Z,26.30
2022-10-12T15:02:33.505Z,26.10
2022-10-12T15:05:25.289Z,26.00
2022-10-12T15:08:12.725Z,26.10
2022-10-12T15:11:00.155Z,25.90
2022-10-12T15:13:47.716Z,26.00
2022-10-12T15:16:35.202Z,25.90
2022-10-12T15:19:22.646Z,25.70
2022-10-12T15:22:24.335Z,25.60
2022-10-12T15:25:25.332Z,25.40
2022-10-12T15:28:12.992Z,25.50
2022-10-12T15:31:19.713Z,25.40
2022-10-12T15:34:15.357Z,25.20
2022-10-12T15:37:07.967Z,25.10
2022-10-12T15:39:56.375Z,25.00
2022-10-12T15:42:44.170Z,24.90
2022-10-12T15:45:53.534Z,24.90
2022-10-12T15:48:46.955Z,24.70
2022-10-12T15:51:47.231Z,24.50
2022-10-12T15:54:37.474Z,24.50
2022-10-12T15:57:42.578Z,24.40
2022-10-12T16:00:32.864Z,24.30
2022-10-12T16:03:25.906Z,24.20
2022-10-12T16:06:14.827Z,24.10
2022-10-12T16:09:02.261Z,24.00
2022-10-12T16:11:50.269Z,23.90
2022-10-12T16:14:37.711Z,23.80
2022-10-12T16:17:25.137Z,23.60
2022-10-12T16:20:12.994Z,23.50
2022-10-12T16:23:01.630Z,23.30
2022-10-12T16:25:49.200Z,23.20
2022-10-12T16:28:37.594Z,23.10
2022-10-12T16:31:25.276Z,23.10
2022-10-12T16:34:12.762Z,23.00
2022-10-12T16:37:00.486Z,22.70
2022-10-12T16:39:48.107Z,22.80
2022-10-12T16:42:36.129Z,22.90
2022-10-12T16:45:25.705Z,22.80
2022-10-12T16:48:13.165Z,22.50
2022-10-12T16:51:01.058Z,22.60
2022-10-12T16:53:48.574Z,22.50
2022-10-12T16:56:39.345Z,22.50
2022-10-12T16:59:27.863Z,22.50
2022-10-12T17:02:17.946Z,22.50
2022-10-12T17:05:07.291Z,22.40
2022-10-12T17:07:54.778Z,22.40
2022-10-12T17:10:45.479Z,22.30
2022-10-12T17:13:35.056Z,22.20
2022-10-12T17:16:41.847Z,22.10
2022-10-12T17:19:37.321Z,21.80
2022-10-12T17:22:24.811Z,21.60
2022-10-12T17:25:12.240Z,21.40
2022-10-12T17:27:59.671Z,21.00
2022-10-12T17:30:47.156Z,20.80
2022-10-12T17:33:35.474Z,20.80
2022-10-12T17:36:27.906Z,20.90
2022-10-12T17:39:16.706Z,20.80
2022-10-12T17:42:05.361Z,21.10
2022-10-12T17:44:52.825Z,20.90
2022-10-12T17:47:40.295Z,20.80
2022-10-12T17:50:27.758Z,20.60
2022-10-12T17:53:15.720Z,20.10
2022-10-12T17:56:05.437Z,19.90
2022-10-12T17:59:02.906Z,19.80
2022-10-12T18:01:51.948Z,19.50
2022-10-12T18:04:39.424Z,19.30
2022-10-12T18:07:26.930Z,19.20
2022-10-12T18:10:14.410Z,19.20
2022-10-12T18:13:01.849Z,19.10
2022-10-12T18:15:49.315Z,18.90
2022-10-12T18:18:38.325Z,18.80
2022-10-12T18:21:28.674Z,18.80
2022-10-12T18:24:17.548Z,18.60
2022-10-12T18:27:05.203Z,18.60
2022-10-12T18:29:52.630Z,18.70
2022-10-12T18:32:40.100Z,18.70
2022-10-12T18:35:34.625Z,18.50
2022-10-12T18:38:22.079Z,18.40
2022-10-12T18:41:16.774Z,18.30
2022-10-12T18:44:04.401Z,18.20
2022-10-12T18:46:51.915Z,18.20
2022-10-12T18:49:39.420Z,18.10
2022-10-12T18:52:27.285Z,18.00
2022-10-12T18:55:14.851Z,18.00
2022-10-12T18:58:02.201Z,17.90
2022-10-12T19:00:49.987Z,17.90
2022-10-12T19:03:37.820Z,17.90
2022-10-12T19:06:32.866Z,17.80
2022-10-12T19:09:20.520Z,17.80
2022-10-12T19:12:08.220Z,17.70
2022-10-12T19:14:55.607Z,17.70
2022-10-12T19:17:43.075Z,17.70
2022-10-12T19:20:32.407Z,17.60
2022-10-12T19:23:19.919Z,17.50
2022-10-12T19:26:15.860Z,17.60
2022-10-12T19:29:04.559Z,17.50
2022-10-12T19:31:53.983Z,17.50
2022-10-12T19:34:41.435Z,17.40
2022-10-12T19:37:28.961Z,17.50
2022-10-12T19:40:16.520Z,17.40
2022-10-12T19:43:04.441Z,17.40
2022-10-12T19:45:52.030Z,17.40
2022-10-12T19:48:44.010Z,17.40
2022-10-12T19:51:32.560Z,17.40
2022-10-12T19:54:20.047Z,17.40
2022-10-12T19:57:07.475Z,17.40
2022-10-12T19:59:54.895Z,17.40
2022-10-12T20:02:43.085Z,17.30
2022-10-12T20:05:30.475Z,17.30
2022-10-12T20:08:17.870Z,17.20
2022-10-12T20:11:06.670Z,17.20
2022-10-12T20:13:56.160Z,17.20
2022-10-12T20:16:43.575Z,17.30
2022-10-12T20:19:30.996Z,17.20
2022-10-12T20:22:19.185Z,17.20
2022-10-12T20:25:09.784Z,17.10
2022-10-12T20:28:02.718Z,17.10
2022-10-12T20:30:50.161Z,17.10
2022-10-12T20:33:39.796Z,17.00
2022-10-12T20:36:30.882Z,16.90
2022-10-12T20:39:19.591Z,17.00
2022-10-12T20:42:07.015Z,17.00
2022-10-12T20:44:54.530Z,16.70
2022-10-12T20:47:43.609Z,16.70
2022-10-12T20:50:31.850Z,16.60
2022-10-12T20:53:19.241Z,16.70
2022-10-12T20:56:08.907Z,16.60
2022-10-12T20:58:57.123Z,16.70
2022-10-12T21:01:44.866Z,16.80
2022-10-12T21:04:37.453Z,16.70
2022-10-12T21:07:26.190Z,16.70
2022-10-12T21:10:13.560Z,16.80
2022-10-12T21:13:01.005Z,16.70
2022-10-12T21:15:55.126Z,16.60
2022-10-12T21:18:43.241Z,16.60
2022-10-12T21:21:30.766Z,16.50
2022-10-12T21:24:18.725Z,16.50
2022-10-12T21:27:06.170Z,16.40
2022-10-12T21:29:53.626Z,16.30
2022-10-12T21:32:41.050Z,16.20
2022-10-12T21:35:28.460Z,16.20
2022-10-12T21:38:18.170Z,16.10
2022-10-12T21:41:08.395Z,16.10
2022-10-12T21:43:57.631Z,16.00
2022-10-12T21:46:45.069Z,16.00
2022-10-12T21:49:32.445Z,15.90
2022-10-12T21:52:20.168Z,15.90
2022-10-12T21:55:08.690Z,15.80
2022-10-12T21:57:56.116Z,15.90
2022-10-12T22:00:43.553Z,15.80
2022-10-12T22:03:30.999Z,15.80
2022-10-12T22:06:21.949Z,15.80
2022-10-12T22:09:17.017Z,15.80
2022-10-12T22:12:04.970Z,15.80
2022-10-12T22:14:52.373Z,15.80
2022-10-12T22:17:39.815Z,15.80
2022-10-12T22:20:27.250Z,15.80
2022-10-12T22:23:14.651Z,15.70
2022-10-12T22:26:05.860Z,15.70
2022-10-12T22:28:53.600Z,15.70
2022-10-12T22:31:42.005Z,15.60
2022-10-12T22:34:29.505Z,15.60
2022-10-12T22:37:16.961Z,15.60
2022-10-12T22:40:05.754Z,15.80
2022-10-12T22:42:53.155Z,15.80
2022-10-12T22:45:40.545Z,15.70
2022-10-12T22:48:28.669Z,15.60
2022-10-12T22:51:21.848Z,15.60
2022-10-12T22:54:09.979Z,15.60
2022-10-12T22:56:57.451Z,15.70
2022-10-12T22:59:44.994Z,15.70
2022-10-12T23:02:32.581Z,15.70
2022-10-12T23:05:20.139Z,15.70
2022-10-12T23:08:07.530Z,15.60
2022-10-12T23:10:55.785Z,15.60
2022-10-12T23:13:44.530Z,15.60
2022-10-12T23:16:33.245Z,15.50
2022-10-12T23:19:20.739Z,15.50
2022-10-12T23:22:08.189Z,15.50
2022-10-12T23:24:55.655Z,15.50
2022-10-12T23:27:43.060Z,15.50
2022-10-12T23:30:30.564Z,15.40
2022-10-12T23:33:18.085Z,15.50
2022-10-12T23:36:10.010Z,15.40
2022-10-12T23:39:02.605Z,15.50
2022-10-12T23:41:50.935Z,15.30
2022-10-12T23:44:38.360Z,15.30
2022-10-12T23:47:25.776Z,15.20
2022-10-12T23:50:13.150Z,15.10
2022-10-12T23:53:00.579Z,15.10
2022-10-12T23:55:49.666Z,15.10
2022-10-12T23:58:37.209Z,15.00
